Time;durP1;ratioP1;P1;durP2;ratioP2;P2;SDS_P1;SDS_P2;PMS_P1;PMS_P2;Temp;Humidity;BMP_temperature;BMP_pressure;BME280_temperature;BME280_humidity;BME280_pressure;Samples;Min_cycle;Max_cycle;Signal;HPM_P1;HPM_P2
2024/01/07 00:00:22;;;;;;;20.20;14.70;;;5.90;99.90;;;;;;5054074;28;20189;-68
2024/01/07 00:02:56;;;;;;;21.43;15.73;;;5.80;99.90;;;;;;5053744;28;20416;-69
2024/01/07 00:05:22;;;;;;;19.23;14.70;;;5.80;99.90;;;;;;5053931;28;20224;-68
2024/01/07 00:07:49;;;;;;;20.90;14.77;;;5.80;99.90;;;;;;5052349;28;20956;-68
2024/01/07 00:10:15;;;;;;;20.23;15.13;;;5.80;99.90;;;;;;5053909;28;20541;-68
2024/01/07 00:12:40;;;;;;;19.83;14.93;;;5.80;99.90;;;;;;5053241;28;20424;-68
2024/01/07 00:15:06;;;;;;;16.70;12.90;;;5.80;99.90;;;;;;5053576;28;20202;-68
2024/01/07 00:17:32;;;;;;;18.30;13.03;;;5.80;99.90;;;;;;5053645;28;20575;-68
2024/01/07 00:19:57;;;;;;;20.73;14.27;;;5.80;99.90;;;;;;5053741;28;20518;-68
2024/01/07 00:22:23;;;;;;;19.97;13.83;;;5.70;99.90;;;;;;5053669;28;20173;-67
2024/01/07 00:24:48;;;;;;;16.83;13.40;;;5.80;99.90;;;;;;5078085;22;20237;-70
2024/01/07 00:27:14;;;;;;;15.37;12.73;;;5.80;99.90;;;;;;5045227;28;20174;-70
2024/01/07 00:29:39;;;;;;;19.23;14.93;;;5.80;99.90;;;;;;5054149;28;20170;-70
2024/01/07 00:32:05;;;;;;;20.77;15.57;;;5.80;99.90;;;;;;5054079;28;20705;-71
2024/01/07 00:34:30;;;;;;;18.20;13.73;;;5.80;99.90;;;;;;5054281;28;20674;-69
2024/01/07 00:36:56;;;;;;;15.87;13.00;;;5.80;99.90;;;;;;5053905;28;20178;-70
2024/01/07 00:39:21;;;;;;;19.37;13.63;;;5.80;99.90;;;;;;5054006;28;20172;-70
2024/01/07 00:41:47;;;;;;;18.50;14.33;;;5.70;99.90;;;;;;5053982;28;20212;-70
2024/01/07 00:44:12;;;;;;;19.77;14.63;;;5.80;99.90;;;;;;5053740;28;20197;-70
2024/01/07 00:46:38;;;;;;;18.87;14.63;;;5.80;99.90;;;;;;5053834;28;20876;-70
2024/01/07 00:49:03;;;;;;;21.37;14.80;;;5.80;99.90;;;;;;5054036;28;20200;-70
2024/01/07 00:51:29;;;;;;;19.60;14.80;;;5.80;99.90;;;;;;5053922;28;20691;-70
2024/01/07 00:53:55;;;;;;;19.53;14.67;;;5.70;99.90;;;;;;5053619;28;20852;-70
2024/01/07 00:56:20;;;;;;;19.50;14.50;;;5.70;99.90;;;;;;5053713;28;20170;-70
2024/01/07 00:58:46;;;;;;;17.20;13.73;;;5.60;99.90;;;;;;5053616;28;20539;-71
2024/01/07 01:01:11;;;;;;;21.00;14.10;;;5.70;99.90;;;;;;5053511;28;20631;-70
2024/01/07 01:03:36;;;;;;;17.60;13.73;;;5.70;99.90;;;;;;5053231;28;20627;-70
2024/01/07 01:06:03;;;;;;;18.40;13.67;;;5.70;99.90;;;;;;5053736;28;20176;-71
2024/01/07 01:08:29;;;;;;;19.70;13.80;;;5.70;99.90;;;;;;5053132;28;20200;-70
2024/01/07 01:10:54;;;;;;;18.10;13.67;;;5.60;99.90;;;;;;5053624;28;20933;-70
2024/01/07 01:13:20;;;;;;;19.67;14.83;;;5.60;99.90;;;;;;5053312;28;20180;-71
2024/01/07 01:15:45;;;;;;;21.33;16.13;;;5.60;99.90;;;;;;5053336;28;20170;-70
2024/01/07 01:18:11;;;;;;;20.97;14.40;;;5.60;99.90;;;;;;5053126;28;20174;-70
2024/01/07 01:20:36;;;;;;;20.13;14.60;;;5.60;99.90;;;;;;5053522;28;20239;-69
2024/01/07 01:23:02;;;;;;;22.00;14.33;;;5.60;99.90;;;;;;5052768;28;20182;-70
2024/01/07 01:25:29;;;;;;;21.80;15.60;;;5.60;99.90;;;;;;5052857;28;20251;-70
2024/01/07 01:27:55;;;;;;;22.17;14.67;;;5.70;99.90;;;;;;5053127;28;20170;-70
2024/01/07 01:30:21;;;;;;;23.20;16.33;;;5.60;99.90;;;;;;5053090;28;20415;-69
2024/01/07 01:32:46;;;;;;;24.13;17.30;;;5.50;99.90;;;;;;5053212;28;20473;-70
2024/01/07 01:35:13;;;;;;;19.97;14.40;;;5.50;99.90;;;;;;5052751;28;20197;-70
2024/01/07 01:37:38;;;;;;;26.93;15.90;;;5.60;99.90;;;;;;5052696;28;20178;-70
2024/01/07 01:40:04;;;;;;;25.90;16.40;;;5.60;99.90;;;;;;5052767;28;20419;-70
2024/01/07 01:42:29;;;;;;;25.03;14.83;;;5.50;99.90;;;;;;5052763;28;20673;-70
2024/01/07 01:44:59;;;;;;;24.60;16.13;;;5.60;99.90;;;;;;5052790;28;20447;-70
2024/01/07 01:47:25;;;;;;;24.87;16.37;;;5.50;99.90;;;;;;5052834;28;20197;-70
2024/01/07 01:49:50;;;;;;;26.90;16.60;;;5.60;99.90;;;;;;5053209;28;20446;-70
2024/01/07 01:52:16;;;;;;;26.50;15.60;;;5.50;99.90;;;;;;5052929;28;20227;-70
2024/01/07 01:54:41;;;;;;;25.60;16.17;;;5.40;99.90;;;;;;5052877;28;20205;-70
2024/01/07 01:57:12;;;;;;;23.30;16.23;;;5.40;99.90;;;;;;5052843;28;20601;-70
2024/01/07 01:59:38;;;;;;;25.10;16.30;;;5.40;99.90;;;;;;5052811;28;20173;-71
2024/01/07 02:02:04;;;;;;;25.20;15.40;;;5.40;99.90;;;;;;5053057;28;20954;-70
2024/01/07 02:04:29;;;;;;;26.37;16.30;;;5.40;99.90;;;;;;5051627;28;20197;-70
2024/01/07 02:06:55;;;;;;;29.57;16.20;;;5.40;99.90;;;;;;5052569;28;20194;-70
2024/01/07 02:09:21;;;;;;;30.43;17.33;;;5.40;99.90;;;;;;5052923;28;20208;-70
2024/01/07 02:12:04;;;;;;;30.17;16.97;;;5.30;99.90;;;;;;5052801;28;20423;-70
2024/01/07 02:14:29;;;;;;;31.13;16.63;;;5.40;99.90;;;;;;5052953;28;20205;-70
2024/01/07 02:16:55;;;;;;;28.90;16.80;;;5.40;99.90;;;;;;5052559;28;20777;-69
2024/01/07 02:19:21;;;;;;;29.73;17.20;;;5.30;99.90;;;;;;5052907;28;20178;-70
2024/01/07 02:21:47;;;;;;;29.10;15.67;;;5.30;99.90;;;;;;5052830;28;20219;-69
2024/01/07 02:24:16;;;;;;;35.07;18.67;;;5.30;99.90;;;;;;5052438;28;20459;-70
2024/01/07 02:26:42;;;;;;;27.63;16.77;;;5.30;99.90;;;;;;5052466;28;20309;-70
2024/01/07 02:29:07;;;;;;;28.13;18.80;;;5.30;99.90;;;;;;5052661;28;20416;-70
2024/01/07 02:31:33;;;;;;;28.73;18.20;;;5.20;99.90;;;;;;5052711;28;20180;-70
2024/01/07 02:33:58;;;;;;;30.73;17.47;;;5.30;99.90;;;;;;5052195;28;20209;-70
2024/01/07 02:36:24;;;;;;;24.50;16.70;;;5.20;99.90;;;;;;5056200;28;20650;-70
2024/01/07 02:38:49;;;;;;;28.03;17.03;;;5.20;99.90;;;;;;5056580;28;20181;-70
2024/01/07 02:41:15;;;;;;;36.33;19.67;;;5.20;99.90;;;;;;5056778;28;20243;-70
2024/01/07 02:43:40;;;;;;;29.93;18.33;;;5.20;99.90;;;;;;5056734;28;20253;-70
2024/01/07 02:46:07;;;;;;;32.03;19.37;;;5.20;99.90;;;;;;5056399;28;20657;-70
2024/01/07 02:48:33;;;;;;;33.67;19.70;;;5.20;99.90;;;;;;5054846;28;20174;-70
2024/01/07 02:50:58;;;;;;;26.00;18.47;;;5.20;99.90;;;;;;5056528;28;20485;-70
2024/01/07 02:53:24;;;;;;;33.73;21.80;;;5.20;99.90;;;;;;5056339;28;20170;-70
2024/01/07 02:55:49;;;;;;;26.27;17.33;;;5.20;99.90;;;;;;5055865;28;20242;-69
2024/01/07 02:58:15;;;;;;;28.63;18.87;;;5.30;99.90;;;;;;5055953;28;20177;-70
2024/01/07 03:00:41;;;;;;;27.67;18.40;;;5.30;99.90;;;;;;5055857;28;20166;-70
2024/01/07 03:03:06;;;;;;;30.00;20.27;;;5.30;99.90;;;;;;5055629;28;20165;-70
2024/01/07 03:05:32;;;;;;;30.53;19.57;;;5.30;99.90;;;;;;5055639;28;20416;-69
2024/01/07 03:07:59;;;;;;;26.60;18.23;;;5.30;99.90;;;;;;5054996;28;20166;-70
2024/01/07 03:10:25;;;;;;;25.03;18.23;;;5.30;99.90;;;;;;5055279;28;20477;-70
2024/01/07 03:12:52;;;;;;;27.50;18.80;;;5.30;99.90;;;;;;5055262;28;20430;-70
2024/01/07 03:15:17;;;;;;;30.63;20.10;;;5.20;99.90;;;;;;5055371;28;20463;-69
2024/01/07 03:17:44;;;;;;;30.53;20.13;;;5.20;99.90;;;;;;5055283;28;20177;-70
2024/01/07 03:20:10;;;;;;;30.20;18.73;;;5.20;99.90;;;;;;5055040;28;20177;-70
2024/01/07 03:22:35;;;;;;;27.07;19.07;;;5.20;99.90;;;;;;5055087;28;20811;-70
2024/01/07 03:25:01;;;;;;;32.37;21.57;;;5.20;99.90;;;;;;5054794;28;20466;-70
2024/01/07 03:27:27;;;;;;;25.57;17.20;;;5.20;99.90;;;;;;5054733;28;20681;-70
2024/01/07 03:29:52;;;;;;;26.23;17.13;;;5.30;99.90;;;;;;5054873;28;20420;-70
2024/01/07 03:32:18;;;;;;;29.77;19.20;;;5.30;99.90;;;;;;5055014;28;20188;-70
2024/01/07 03:34:43;;;;;;;25.93;18.70;;;5.40;99.90;;;;;;5055029;28;20236;-70
2024/01/07 03:37:09;;;;;;;26.40;19.57;;;5.40;99.90;;;;;;5055200;28;20174;-70
2024/01/07 03:39:34;;;;;;;23.57;17.30;;;5.40;99.90;;;;;;5055468;28;20642;-70
2024/01/07 03:42:00;;;;;;;26.50;17.40;;;5.40;99.90;;;;;;5055470;28;20174;-70
2024/01/07 03:44:26;;;;;;;29.20;19.70;;;5.30;99.90;;;;;;5055346;28;20190;-70
2024/01/07 03:46:51;;;;;;;25.80;17.23;;;5.30;99.90;;;;;;5053927;28;20185;-70
2024/01/07 03:49:20;;;;;;;21.03;15.43;;;5.20;99.90;;;;;;5055366;28;20555;-70
2024/01/07 03:51:45;;;;;;;29.07;16.40;;;5.30;99.90;;;;;;5055156;28;20639;-70
2024/01/07 03:54:11;;;;;;;26.87;18.80;;;5.30;99.90;;;;;;5054828;28;20521;-70
2024/01/07 03:56:36;;;;;;;27.60;18.60;;;5.30;99.90;;;;;;5054837;28;20239;-70
2024/01/07 03:59:02;;;;;;;22.70;16.90;;;5.30;99.90;;;;;;5055251;28;20165;-70
2024/01/07 04:01:27;;;;;;;28.43;18.37;;;5.20;99.90;;;;;;5054936;28;20555;-70
2024/01/07 04:03:53;;;;;;;32.57;18.13;;;5.10;99.90;;;;;;5054478;28;20720;-71
2024/01/07 04:06:18;;;;;;;25.40;16.87;;;5.10;99.90;;;;;;5054310;28;20182;-70
2024/01/07 04:08:44;;;;;;;28.83;19.23;;;5.10;99.90;;;;;;5054781;28;20170;-70
2024/01/07 04:11:09;;;;;;;27.00;18.90;;;5.10;99.90;;;;;;5054641;28;20196;-70
2024/01/07 04:13:35;;;;;;;26.80;18.80;;;5.10;99.90;;;;;;5054570;28;20189;-69
2024/01/07 04:16:00;;;;;;;29.73;18.17;;;5.00;99.90;;;;;;5054290;28;20244;-71
2024/01/07 04:18:26;;;;;;;21.33;16.97;;;5.00;99.90;;;;;;5054347;28;20644;-71
2024/01/07 04:20:51;;;;;;;26.53;18.33;;;5.00;99.90;;;;;;5054411;28;20259;-71
2024/01/07 04:23:17;;;;;;;25.43;16.43;;;5.00;99.90;;;;;;5054138;28;20174;-70
2024/01/07 04:25:44;;;;;;;26.47;18.53;;;5.00;99.90;;;;;;5054968;28;20166;-70
2024/01/07 04:28:09;;;;;;;25.77;18.67;;;5.00;99.90;;;;;;5054312;28;20173;-70
2024/01/07 04:30:35;;;;;;;24.27;17.80;;;5.00;99.90;;;;;;5054719;28;20424;-70
2024/01/07 04:33:01;;;;;;;28.73;17.20;;;5.00;99.90;;;;;;5054117;28;20547;-70
2024/01/07 04:35:26;;;;;;;24.80;16.90;;;5.00;99.90;;;;;;5053945;28;20586;-70
2024/01/07 04:37:52;;;;;;;22.50;17.20;;;5.00;99.90;;;;;;5053653;28;20170;-70
2024/01/07 04:40:17;;;;;;;27.70;17.93;;;5.10;99.90;;;;;;5053803;28;20177;-70
2024/01/07 04:42:42;;;;;;;22.43;16.37;;;5.10;99.90;;;;;;5053855;28;20181;-69
2024/01/07 04:45:08;;;;;;;24.00;16.90;;;5.10;99.90;;;;;;5053637;28;20193;-70
2024/01/07 04:47:34;;;;;;;24.00;16.13;;;5.20;99.90;;;;;;5053228;28;20269;-70
2024/01/07 04:50:00;;;;;;;25.03;17.10;;;5.20;99.90;;;;;;5053550;28;20173;-69
2024/01/07 04:52:25;;;;;;;26.17;17.53;;;5.20;99.90;;;;;;5053439;28;20205;-70
2024/01/07 04:54:54;;;;;;;26.57;17.47;;;5.10;99.90;;;;;;5053319;28;20202;-70
2024/01/07 04:57:20;;;;;;;25.33;19.07;;;5.10;99.90;;;;;;5053279;28;20613;-70
2024/01/07 04:59:47;;;;;;;25.00;17.60;;;5.10;99.90;;;;;;5053426;28;21023;-70
2024/01/07 05:02:12;;;;;;;21.53;15.97;;;5.10;99.90;;;;;;5053332;28;20420;-70
2024/01/07 05:04:38;;;;;;;24.63;16.83;;;5.10;99.90;;;;;;5053086;28;20447;-70
2024/01/07 05:07:04;;;;;;;24.13;16.27;;;5.10;99.90;;;;;;5053061;28;20173;-70
2024/01/07 05:09:29;;;;;;;21.13;14.57;;;5.00;99.90;;;;;;5053120;28;20220;-69
2024/01/07 05:11:55;;;;;;;22.43;16.73;;;5.00;99.90;;;;;;5053397;28;20504;-70
2024/01/07 05:14:22;;;;;;;24.80;17.57;;;5.00;99.90;;;;;;5052840;28;20197;-71
2024/01/07 05:16:48;;;;;;;21.07;15.57;;;4.90;99.90;;;;;;5052595;28;20602;-70
2024/01/07 05:19:13;;;;;;;21.70;16.53;;;5.00;99.90;;;;;;5052904;28;20424;-70
2024/01/07 05:21:39;;;;;;;22.40;15.40;;;5.00;99.90;;;;;;5052825;28;20174;-70
2024/01/07 05:24:05;;;;;;;23.47;16.50;;;5.00;99.90;;;;;;5052569;28;20237;-70
2024/01/07 05:26:30;;;;;;;24.70;16.37;;;5.10;99.90;;;;;;5052595;28;20586;-70
2024/01/07 05:28:56;;;;;;;19.33;15.27;;;5.00;99.90;;;;;;5052833;28;20420;-70
2024/01/07 05:31:21;;;;;;;20.33;15.60;;;5.00;99.90;;;;;;5052538;28;20184;-69
2024/01/07 05:33:47;;;;;;;21.07;14.80;;;5.00;99.90;;;;;;5052777;28;20727;-70
2024/01/07 05:36:13;;;;;;;22.27;15.10;;;5.00;99.90;;;;;;5052622;28;20536;-70
2024/01/07 05:38:38;;;;;;;18.80;14.40;;;5.00;99.90;;;;;;5052240;28;20185;-70
2024/01/07 05:41:04;;;;;;;18.43;13.83;;;5.00;99.90;;;;;;5052692;28;20642;-70
2024/01/07 05:43:30;;;;;;;21.13;14.30;;;5.00;99.90;;;;;;5052690;28;20185;-70
2024/01/07 05:45:55;;;;;;;18.60;14.37;;;5.00;99.90;;;;;;5052441;28;20427;-70
2024/01/07 05:48:22;;;;;;;22.13;14.70;;;5.00;99.90;;;;;;5052258;28;20538;-70
2024/01/07 05:50:48;;;;;;;21.73;15.70;;;5.00;99.90;;;;;;5053912;28;20200;-69
2024/01/07 05:53:13;;;;;;;21.70;14.83;;;5.00;99.90;;;;;;5054521;28;20412;-70
2024/01/07 05:55:39;;;;;;;17.90;14.50;;;5.00;99.90;;;;;;5055741;28;20205;-70
2024/01/07 05:58:04;;;;;;;19.97;13.97;;;5.00;99.90;;;;;;5055222;28;20174;-69
2024/01/07 06:00:30;;;;;;;19.30;14.30;;;5.00;99.90;;;;;;5055637;28;20176;-69
2024/01/07 06:02:56;;;;;;;19.90;14.67;;;5.00;99.90;;;;;;5056456;28;20158;-70
2024/01/07 06:05:21;;;;;;;20.97;14.23;;;5.00;99.90;;;;;;5056813;28;20276;-70
2024/01/07 06:07:47;;;;;;;21.50;14.67;;;5.00;99.90;;;;;;5054696;28;20173;-69
2024/01/07 06:10:12;;;;;;;23.90;16.77;;;5.00;99.90;;;;;;5051638;28;20177;-68
2024/01/07 06:12:38;;;;;;;25.90;17.33;;;5.00;99.90;;;;;;5052060;28;20604;-69
2024/01/07 06:15:05;;;;;;;21.23;15.50;;;5.10;99.90;;;;;;5052040;28;20289;-69
2024/01/07 06:17:31;;;;;;;18.90;13.13;;;5.10;99.90;;;;;;5047675;28;20177;-69
2024/01/07 06:19:56;;;;;;;19.63;14.40;;;5.20;99.90;;;;;;5048625;28;20766;-69
2024/01/07 06:22:22;;;;;;;22.37;16.23;;;5.00;99.90;;;;;;5054987;28;20623;-69
2024/01/07 06:24:47;;;;;;;18.10;14.17;;;5.00;99.90;;;;;;5055466;28;20213;-70
2024/01/07 06:27:13;;;;;;;19.40;15.17;;;5.00;99.90;;;;;;5052566;28;20645;-69
2024/01/07 06:29:39;;;;;;;21.30;15.87;;;5.00;99.90;;;;;;5052492;28;20550;-69
2024/01/07 06:32:04;;;;;;;18.30;14.40;;;5.10;99.90;;;;;;5052442;28;20252;-69
2024/01/07 06:34:30;;;;;;;21.57;14.53;;;5.00;99.90;;;;;;5052342;28;20669;-69
2024/01/07 06:36:55;;;;;;;21.50;15.27;;;4.90;99.90;;;;;;5051805;28;20173;-71
2024/01/07 06:39:21;;;;;;;19.00;13.80;;;4.90;99.90;;;;;;5051919;28;20537;-72
2024/01/07 06:41:46;;;;;;;20.80;14.67;;;4.80;99.90;;;;;;5052213;28;20185;-71
2024/01/07 06:44:12;;;;;;;18.90;14.17;;;4.80;99.90;;;;;;5050856;28;20277;-70
2024/01/07 06:46:37;;;;;;;19.43;15.43;;;4.80;99.90;;;;;;5051959;28;20590;-69
2024/01/07 06:49:03;;;;;;;23.97;17.50;;;4.80;99.90;;;;;;5052342;28;20595;-69
2024/01/07 06:51:28;;;;;;;19.30;14.73;;;4.80;99.90;;;;;;5052199;28;20162;-69
2024/01/07 06:53:54;;;;;;;18.60;14.97;;;4.80;99.90;;;;;;5052114;28;20201;-70
2024/01/07 06:56:19;;;;;;;21.70;17.20;;;4.70;99.90;;;;;;5051986;28;20165;-69
2024/01/07 06:58:45;;;;;;;22.80;16.30;;;4.80;99.90;;;;;;5050816;28;20169;-69
2024/01/07 07:01:11;;;;;;;18.57;14.70;;;4.80;99.90;;;;;;5051915;28;20191;-69
2024/01/07 07:03:37;;;;;;;22.43;15.60;;;4.80;99.90;;;;;;5051856;28;20188;-69
2024/01/07 07:06:02;;;;;;;20.97;14.70;;;4.80;99.90;;;;;;5051929;28;20424;-69
2024/01/07 07:08:28;;;;;;;16.90;13.70;;;4.70;99.90;;;;;;5051698;28;20178;-70
2024/01/07 07:10:53;;;;;;;19.67;16.23;;;4.70;99.90;;;;;;5051998;28;20166;-70
2024/01/07 07:13:19;;;;;;;20.57;16.80;;;4.70;99.90;;;;;;5051776;28;20177;-70
2024/01/07 07:15:44;;;;;;;18.30;14.50;;;4.70;99.90;;;;;;5051361;28;20209;-70
2024/01/07 07:18:10;;;;;;;17.90;14.67;;;4.70;99.90;;;;;;5051199;28;20205;-69
2024/01/07 07:20:36;;;;;;;21.87;15.80;;;4.70;99.90;;;;;;5050334;28;20170;-69
2024/01/07 07:23:01;;;;;;;17.53;14.93;;;4.60;99.90;;;;;;5053447;28;20169;-69
2024/01/07 07:25:27;;;;;;;19.40;14.53;;;4.60;99.90;;;;;;5054705;28;20243;-69
2024/01/07 07:27:52;;;;;;;16.40;13.03;;;4.60;99.90;;;;;;5054454;28;20169;-69
2024/01/07 07:30:18;;;;;;;16.97;12.50;;;4.60;99.90;;;;;;5054651;28;20201;-69
2024/01/07 07:32:44;;;;;;;19.23;14.53;;;4.50;99.90;;;;;;5054667;28;20187;-69
2024/01/07 07:35:10;;;;;;;15.97;13.30;;;4.60;99.90;;;;;;5054576;28;20839;-71
2024/01/07 07:37:38;;;;;;;17.20;13.13;;;4.60;99.90;;;;;;5054388;28;20176;-72
2024/01/07 07:40:04;;;;;;;14.73;12.67;;;4.50;99.90;;;;;;5054616;28;20173;-71
2024/01/07 07:42:29;;;;;;;15.53;12.90;;;4.50;99.90;;;;;;5054518;28;20420;-71
2024/01/07 07:44:54;;;;;;;18.70;13.23;;;4.40;99.90;;;;;;5054333;28;20448;-71
2024/01/07 07:47:20;;;;;;;16.00;13.07;;;4.40;99.90;;;;;;5054143;28;20181;-71
2024/01/07 07:49:46;;;;;;;14.50;10.40;;;4.40;99.90;;;;;;5053173;28;20201;-71
2024/01/07 07:52:14;;;;;;;14.87;13.33;;;4.30;99.90;;;;;;5054391;28;20227;-71
2024/01/07 07:54:39;;;;;;;13.43;10.70;;;4.40;99.90;;;;;;5054242;28;20212;-71
2024/01/07 07:57:05;;;;;;;15.00;11.23;;;4.30;99.90;;;;;;5054324;28;20416;-71
2024/01/07 07:59:31;;;;;;;21.27;12.57;;;4.30;99.90;;;;;;5054240;28;20169;-71
2024/01/07 08:01:56;;;;;;;14.30;12.07;;;4.40;99.90;;;;;;5052836;28;20713;-71
2024/01/07 08:04:22;;;;;;;14.10;11.90;;;4.40;99.90;;;;;;5054234;28;20186;-71
2024/01/07 08:06:47;;;;;;;16.20;13.47;;;4.40;99.90;;;;;;5053893;28;20181;-71
2024/01/07 08:09:14;;;;;;;12.83;11.17;;;4.40;99.90;;;;;;5054062;28;20223;-70
2024/01/07 08:11:39;;;;;;;11.73;9.73;;;4.40;99.90;;;;;;5054031;28;20173;-71
2024/01/07 08:14:05;;;;;;;12.80;10.30;;;4.30;99.90;;;;;;5053755;28;20470;-71
2024/01/07 08:16:31;;;;;;;11.43;9.30;;;4.20;99.90;;;;;;5053536;28;20177;-70
2024/01/07 08:18:57;;;;;;;13.10;9.60;;;4.20;99.90;;;;;;5053929;28;20406;-71
2024/01/07 08:21:23;;;;;;;13.33;9.73;;;4.20;99.90;;;;;;5053908;28;20244;-71
2024/01/07 08:23:48;;;;;;;14.10;11.43;;;4.10;99.90;;;;;;5053688;28;20744;-71
2024/01/07 08:26:19;;;;;;;13.33;10.73;;;4.10;99.90;;;;;;5053804;28;20445;-71
2024/01/07 08:28:44;;;;;;;11.83;10.03;;;4.00;99.90;;;;;;5053449;28;20256;-71
2024/01/07 08:31:10;;;;;;;10.77;9.67;;;4.00;99.90;;;;;;5053760;28;20531;-71
2024/01/07 08:33:35;;;;;;;12.37;10.13;;;4.10;99.90;;;;;;5052965;28;20189;-71
2024/01/07 08:36:01;;;;;;;14.53;9.83;;;4.10;99.90;;;;;;5053432;28;20563;-71
2024/01/07 08:38:27;;;;;;;11.37;10.27;;;4.10;99.90;;;;;;5052069;28;20884;-71
2024/01/07 08:40:52;;;;;;;13.13;9.63;;;4.20;99.90;;;;;;5053504;28;20177;-71
2024/01/07 08:43:18;;;;;;;15.67;11.10;;;4.20;99.90;;;;;;5053348;28;20169;-71
2024/01/07 08:45:43;;;;;;;12.97;10.27;;;4.20;99.90;;;;;;5053674;28;20749;-71
2024/01/07 08:48:09;;;;;;;12.57;10.60;;;4.20;99.90;;;;;;5053124;28;20184;-71
2024/01/07 08:50:35;;;;;;;16.83;9.97;;;4.30;99.90;;;;;;5053237;28;20638;-71
2024/01/07 08:53:00;;;;;;;11.93;9.97;;;4.30;99.90;;;;;;5053227;28;20473;-70
2024/01/07 08:55:27;;;;;;;10.60;9.53;;;4.20;99.90;;;;;;5053024;28;20577;-71
2024/01/07 08:57:52;;;;;;;12.33;8.43;;;4.30;99.90;;;;;;5052952;28;20158;-71
2024/01/07 09:00:18;;;;;;;9.73;8.50;;;4.30;99.90;;;;;;5053254;28;20502;-71
2024/01/07 09:02:44;;;;;;;11.40;9.30;;;4.20;99.90;;;;;;5053222;28;20166;-71
2024/01/07 09:05:11;;;;;;;12.67;10.40;;;4.30;99.90;;;;;;5053004;28;20508;-72
2024/01/07 09:07:37;;;;;;;11.07;9.77;;;4.30;99.90;;;;;;5052711;28;20569;-71
2024/01/07 09:10:03;;;;;;;15.63;11.23;;;4.30;99.90;;;;;;5052934;28;20426;-71
2024/01/07 09:12:28;;;;;;;10.00;8.60;;;4.30;99.90;;;;;;5052836;28;20670;-71
2024/01/07 09:14:54;;;;;;;11.17;8.73;;;4.20;99.90;;;;;;5051579;28;20220;-70
2024/01/07 09:17:19;;;;;;;11.83;9.70;;;4.20;99.90;;;;;;5052447;28;20631;-71
2024/01/07 09:19:45;;;;;;;10.87;9.47;;;4.10;99.90;;;;;;5052835;28;20169;-71
2024/01/07 09:22:11;;;;;;;12.80;9.37;;;4.10;99.90;;;;;;5052888;28;20170;-71
2024/01/07 09:24:37;;;;;;;11.70;9.40;;;4.30;99.90;;;;;;5052920;28;20335;-71
2024/01/07 09:27:03;;;;;;;8.40;7.50;;;4.30;99.90;;;;;;5052480;28;20984;-71
2024/01/07 09:29:28;;;;;;;11.70;7.50;;;4.30;99.90;;;;;;5052676;28;20263;-70
2024/01/07 09:31:53;;;;;;;8.87;7.53;;;4.20;99.90;;;;;;5052591;28;20227;-70
2024/01/07 09:34:19;;;;;;;8.80;6.70;;;4.10;99.90;;;;;;5052520;28;20254;-71
2024/01/07 09:36:44;;;;;;;8.37;6.30;;;4.10;99.90;;;;;;5052430;28;20162;-71
2024/01/07 09:39:10;;;;;;;6.83;6.07;;;4.00;99.90;;;;;;5052476;28;20538;-71
2024/01/07 09:41:36;;;;;;;8.10;6.57;;;4.00;99.90;;;;;;5052205;28;20693;-71
2024/01/07 09:44:02;;;;;;;6.90;5.97;;;4.00;99.90;;;;;;5051816;28;20229;-71
2024/01/07 09:46:30;;;;;;;8.77;6.03;;;3.90;99.90;;;;;;5051859;28;20181;-71
2024/01/07 09:48:55;;;;;;;6.57;5.50;;;4.00;99.90;;;;;;5052415;28;20427;-71
2024/01/07 09:51:22;;;;;;;5.80;5.10;;;4.00;99.90;;;;;;5052403;28;20419;-71
2024/01/07 09:53:51;;;;;;;7.93;5.73;;;4.00;99.90;;;;;;5052108;28;20208;-70
2024/01/07 09:56:25;;;;;;;6.37;5.57;;;4.00;99.90;;;;;;5051993;28;20416;-70
2024/01/07 09:58:51;;;;;;;7.23;5.93;;;4.00;99.90;;;;;;5052176;28;20419;-70
2024/01/07 10:01:19;;;;;;;5.90;5.27;;;4.00;99.90;;;;;;5052331;28;20416;-71
2024/01/07 10:03:45;;;;;;;7.23;5.53;;;4.10;99.90;;;;;;5052004;28;20735;-70
2024/01/07 10:06:11;;;;;;;6.40;4.90;;;4.10;99.90;;;;;;5052132;28;20641;-71
2024/01/07 10:08:37;;;;;;;6.73;5.20;;;4.10;99.90;;;;;;5051837;28;20174;-70
2024/01/07 10:11:04;;;;;;;7.37;6.50;;;4.10;99.90;;;;;;5051969;28;20427;-70
2024/01/07 10:13:30;;;;;;;7.33;6.63;;;4.10;99.90;;;;;;5051970;28;20432;-71
2024/01/07 10:15:56;;;;;;;9.10;6.50;;;4.10;99.90;;;;;;5051898;28;20447;-71
2024/01/07 10:18:22;;;;;;;10.23;7.37;;;4.10;99.90;;;;;;5051668;28;20412;-71
2024/01/07 10:20:48;;;;;;;8.50;6.40;;;4.00;99.90;;;;;;5052184;28;20179;-70
2024/01/07 10:23:19;;;;;;;9.63;7.07;;;3.90;99.90;;;;;;5051719;28;20419;-71
2024/01/07 10:25:44;;;;;;;7.90;6.53;;;3.90;99.90;;;;;;5052147;28;20180;-71
2024/01/07 10:28:11;;;;;;;8.20;7.13;;;3.90;99.90;;;;;;5051662;28;20482;-71
2024/01/07 10:30:39;;;;;;;8.30;6.60;;;4.00;99.90;;;;;;5052154;28;20169;-70
2024/01/07 10:33:07;;;;;;;9.40;7.70;;;4.00;99.90;;;;;;5051901;28;21009;-70
2024/01/07 10:35:34;;;;;;;12.80;6.90;;;4.00;99.90;;;;;;5051932;28;20485;-70
2024/01/07 10:38:00;;;;;;;8.43;6.97;;;4.00;99.90;;;;;;5051643;28;20416;-71
2024/01/07 10:40:29;;;;;;;11.70;7.60;;;4.00;99.90;;;;;;5051721;28;20489;-71
2024/01/07 10:42:55;;;;;;;9.47;7.60;;;4.00;99.90;;;;;;5051844;28;20495;-70
2024/01/07 10:45:22;;;;;;;7.63;6.83;;;3.90;99.90;;;;;;5051676;28;20444;-70
2024/01/07 10:47:54;;;;;;;8.60;7.70;;;3.80;99.90;;;;;;5051422;28;20412;-71
2024/01/07 10:50:21;;;;;;;9.63;6.80;;;3.70;99.90;;;;;;5051712;28;20412;-70
2024/01/07 10:52:51;;;;;;;7.60;6.90;;;3.70;99.90;;;;;;5051691;28;20424;-71
2024/01/07 10:55:18;;;;;;;10.07;7.73;;;3.70;99.90;;;;;;5051442;28;20466;-71
2024/01/07 10:57:49;;;;;;;6.80;5.83;;;3.80;99.90;;;;;;5055181;28;20400;-70
2024/01/07 11:00:21;;;;;;;9.27;7.53;;;3.70;99.90;;;;;;5055552;28;20503;-70
2024/01/07 11:02:57;;;;;;;8.60;7.23;;;3.60;99.90;;;;;;5055583;28;20941;-70
2024/01/07 11:05:33;;;;;;;9.27;6.47;;;3.50;99.90;;;;;;5055356;28;20466;-70
2024/01/07 11:08:07;;;;;;;9.83;7.30;;;3.50;99.90;;;;;;5055095;28;20419;-70
2024/01/07 11:10:44;;;;;;;9.90;8.23;;;3.50;99.90;;;;;;5055197;28;20485;-71
2024/01/07 11:13:10;;;;;;;8.80;7.43;;;3.50;99.90;;;;;;5055082;28;20842;-71
2024/01/07 11:15:50;;;;;;;10.17;7.77;;;3.40;99.90;;;;;;5054941;28;20501;-71
2024/01/07 11:18:23;;;;;;;9.23;6.77;;;3.40;99.90;;;;;;5054759;28;20158;-70
2024/01/07 11:20:49;;;;;;;12.30;8.53;;;3.30;99.90;;;;;;5054979;28;20416;-71
2024/01/07 11:23:33;;;;;;;13.03;7.87;;;3.20;99.90;;;;;;5054590;28;20412;-71
2024/01/07 11:26:02;;;;;;;12.47;8.57;;;3.30;99.90;;;;;;5054841;28;20404;-70
2024/01/07 11:28:46;;;;;;;8.70;7.80;;;3.40;99.90;;;;;;5054503;28;20465;-71
2024/01/07 11:31:16;;;;;;;11.40;8.00;;;3.40;99.90;;;;;;5054734;28;20423;-70
2024/01/07 11:33:44;;;;;;;9.30;8.10;;;3.50;99.90;;;;;;5054550;28;20443;-70
2024/01/07 11:36:11;;;;;;;8.57;6.73;;;3.50;99.90;;;;;;5054609;28;20416;-70
2024/01/07 11:38:39;;;;;;;12.97;8.33;;;3.50;99.90;;;;;;5054286;28;20416;-71
2024/01/07 11:41:05;;;;;;;11.40;8.20;;;3.40;99.90;;;;;;5054626;28;20424;-71
2024/01/07 11:43:32;;;;;;;11.80;7.93;;;3.40;99.90;;;;;;5054459;28;20485;-71
2024/01/07 11:45:58;;;;;;;9.50;7.73;;;3.40;99.90;;;;;;5054356;28;20507;-71
2024/01/07 11:48:23;;;;;;;10.70;7.07;;;3.40;99.90;;;;;;5054148;28;20884;-71
2024/01/07 11:50:49;;;;;;;9.10;7.90;;;3.40;99.90;;;;;;5054483;28;20638;-71
2024/01/07 11:53:15;;;;;;;9.50;8.30;;;3.40;99.90;;;;;;5054409;28;20670;-70
2024/01/07 11:55:41;;;;;;;11.07;7.33;;;3.40;99.90;;;;;;5054291;28;20200;-71
2024/01/07 11:58:06;;;;;;;9.50;7.83;;;3.40;99.90;;;;;;5054117;28;20412;-71
2024/01/07 12:00:33;;;;;;;16.37;8.97;;;3.40;99.90;;;;;;5054571;28;20170;-71
2024/01/07 12:03:00;;;;;;;15.03;9.10;;;3.40;99.90;;;;;;5054123;28;20538;-70
2024/01/07 12:05:25;;;;;;;21.07;11.30;;;3.40;99.90;;;;;;5053903;28;20446;-70
2024/01/07 12:07:51;;;;;;;9.00;7.70;;;3.50;99.90;;;;;;5051625;28;20807;-71
2024/01/07 12:10:17;;;;;;;9.33;8.40;;;3.40;99.90;;;;;;5054015;28;20181;-71
2024/01/07 12:12:44;;;;;;;9.87;8.83;;;3.50;99.90;;;;;;5054046;28;20162;-71
2024/01/07 12:15:11;;;;;;;13.07;9.53;;;3.50;99.90;;;;;;5053833;28;20499;-70
2024/01/07 12:17:41;;;;;;;11.60;8.97;;;3.50;99.90;;;;;;5053599;28;20420;-71
2024/01/07 12:20:08;;;;;;;9.80;8.80;;;3.40;99.90;;;;;;5053749;28;20821;-71
2024/01/07 12:22:40;;;;;;;6.27;5.53;;;3.40;99.90;;;;;;5053723;28;20438;-70
2024/01/07 12:25:06;;;;;;;11.00;8.37;;;3.30;99.90;;;;;;5081603;22;20486;-68
2024/01/07 12:27:33;;;;;;;12.37;10.40;;;3.10;99.90;;;;;;5072848;28;20442;-68
2024/01/07 12:29:59;;;;;;;8.37;6.60;;;3.10;99.90;;;;;;5073464;28;20824;-69
2024/01/07 12:32:31;;;;;;;10.07;6.90;;;3.10;99.90;;;;;;5073568;28;20480;-69
2024/01/07 12:34:59;;;;;;;8.67;7.23;;;3.10;99.90;;;;;;5073324;28;20553;-68